aviador You're here:

CYHU Decoded Metar

MONTREAL in QC, CANADA
Report Time2017-11-23 03:00:00
UTC Time2017-11-23 03:22:11
Flight Rules mvfr MVFR
Wind340° at 11 kt
W.Decomp.*RWY 06: 4.8 kt HW 9.9 kt LCW
RWY 28: 2.7 kt HW 10.7 kt RCW
W.Rank340° ranks 24
Current wind is above 340° avg. (7.4)
Visibility9999 m
Phenomena:N/A
Clouds:Overcast 025 Hf
Expected CloudBase > 1,600 ft AGL from Temp-Dew spread
Ceiling2,500 ft
Temp-3°C (ISA -18)
Dew Point-7°C (74% RH)
AAT-9.8°C
QNH1019 hPa
Density Alt-2,260 ft
Elevation89 ft
Report Wrong Elevation
Raw Report
CYHU 230300Z AUTO 34011KT 9SM OVC025 M03/M07 A3009 RMK SLP191=

Extra information for CYHU:More info

Metar Taf Metar & Taf Last 4 Metars F.Rules Stats Wind Profile Meteogram Temp Stats Airport Information Weather charts Add Link Nearby VenuesMetar ALERT Operation Metar Decoded Social comments